Time;durP1;ratioP1;P1;durP2;ratioP2;P2;SDS_P1;SDS_P2;PMS_P1;PMS_P2;Temp;Humidity;BMP_temperature;BMP_pressure;BME280_temperature;BME280_humidity;BME280_pressure;Samples;Min_cycle;Max_cycle;Signal;HPM_P1;HPM_P2
2021/10/27 00:01:23;;;;;;;10.02;5.43;;;;;;;8.36;73.80;97597.34;5078110;28;20052;-74
2021/10/27 00:03:50;;;;;;;6.82;5.35;;;;;;;8.32;74.04;97595.16;5074157;28;20555;-74
2021/10/27 00:06:18;;;;;;;8.38;5.30;;;;;;;8.24;74.09;97594.09;5074136;28;20075;-74
2021/10/27 00:08:49;;;;;;;7.30;5.10;;;;;;;8.20;74.78;97597.13;5074517;28;20052;-74
2021/10/27 00:11:17;;;;;;;13.50;9.52;;;;;;;8.22;74.71;97589.97;5074295;28;20052;-74
2021/10/27 00:13:46;;;;;;;14.38;10.13;;;;;;;8.21;74.42;97589.16;5082135;28;20037;-74
2021/10/27 00:16:14;;;;;;;10.13;7.78;;;;;;;8.18;74.12;97593.84;5095574;28;20052;-74
2021/10/27 00:18:41;;;;;;;7.30;6.10;;;;;;;8.11;74.35;97595.34;5095694;28;20044;-74
2021/10/27 00:21:10;;;;;;;10.30;5.78;;;;;;;8.04;74.82;97589.91;5096584;28;20033;-73
2021/10/27 00:23:37;;;;;;;9.15;6.65;;;;;;;7.97;74.77;97589.66;5087490;28;20421;-74
2021/10/27 00:26:06;;;;;;;9.45;5.72;;;;;;;7.88;75.41;97587.91;5073437;28;20501;-74
2021/10/27 00:28:34;;;;;;;6.03;5.20;;;;;;;7.82;75.35;97584.09;5073328;28;20495;-74
2021/10/27 00:31:01;;;;;;;7.60;5.78;;;;;;;7.81;75.59;97585.06;5073548;28;20044;-74
2021/10/27 00:33:29;;;;;;;6.88;5.05;;;;;;;7.87;75.97;97586.28;5073233;28;20514;-74
2021/10/27 00:35:56;;;;;;;8.10;6.00;;;;;;;7.92;75.49;97591.06;5073327;28;20056;-74
2021/10/27 00:38:24;;;;;;;7.30;5.72;;;;;;;7.90;75.24;97591.19;5073098;28;20450;-73
2021/10/27 00:40:51;;;;;;;6.72;4.88;;;;;;;7.92;75.21;97589.28;5073033;28;20495;-74
2021/10/27 00:43:20;;;;;;;7.10;5.47;;;;;;;7.95;75.12;97588.97;5073003;28;20072;-74
2021/10/27 00:45:48;;;;;;;7.78;5.70;;;;;;;7.92;74.92;97591.88;5072914;28;20045;-74
2021/10/27 00:48:15;;;;;;;6.25;4.68;;;;;;;7.88;75.63;97592.28;5072959;28;20486;-74
2021/10/27 00:50:43;;;;;;;5.53;4.82;;;;;;;7.89;75.76;97588.72;5072886;28;20056;-74
2021/10/27 00:53:11;;;;;;;6.10;3.75;;;;;;;7.97;75.80;97591.44;5073117;28;20162;-74
2021/10/27 00:55:39;;;;;;;6.60;5.50;;;;;;;8.04;75.67;97595.09;5072847;28;20048;-73
2021/10/27 00:58:07;;;;;;;8.93;5.20;;;;;;;8.04;74.85;97603.72;5072825;28;20071;-74
2021/10/27 01:00:36;;;;;;;6.88;5.47;;;;;;;7.98;74.23;97600.88;5072516;28;20053;-74
2021/10/27 01:03:04;;;;;;;5.85;5.05;;;;;;;7.86;74.46;97594.22;5072929;28;20087;-74
2021/10/27 01:05:32;;;;;;;8.15;5.70;;;;;;;7.75;74.80;97590.81;5072103;28;20049;-74
2021/10/27 01:08:00;;;;;;;7.60;5.22;;;;;;;7.66;74.91;97589.03;5072703;28;20053;-74
2021/10/27 01:10:28;;;;;;;8.13;5.68;;;;;;;7.56;75.26;97583.84;5072372;28;20044;-73
2021/10/27 01:12:55;;;;;;;7.03;5.70;;;;;;;7.50;75.53;97578.38;5072685;28;20049;-74
2021/10/27 01:15:22;;;;;;;8.32;5.35;;;;;;;7.42;75.33;97571.31;5072192;28;20052;-74
2021/10/27 01:17:52;;;;;;;6.88;5.63;;;;;;;7.38;75.94;97575.94;5072579;28;20098;-74
2021/10/27 01:20:21;;;;;;;9.63;5.53;;;;;;;7.34;76.18;97568.56;5072106;28;20064;-74
2021/10/27 01:22:48;;;;;;;8.15;5.88;;;;;;;7.28;76.19;97569.97;5072445;28;20399;-74
2021/10/27 01:25:16;;;;;;;5.80;5.03;;;;;;;7.22;76.39;97565.31;5072163;28;20044;-74
2021/10/27 01:27:45;;;;;;;7.78;5.22;;;;;;;7.19;76.51;97570.75;5072175;28;20055;-74
2021/10/27 01:30:15;;;;;;;7.10;5.60;;;;;;;7.17;77.14;97567.47;5072269;28;20044;-73
2021/10/27 01:32:43;;;;;;;7.55;5.75;;;;;;;7.17;77.22;97559.69;5072407;28;20048;-73
2021/10/27 01:35:11;;;;;;;6.13;5.20;;;;;;;7.21;77.20;97563.66;5083003;28;20048;-73
2021/10/27 01:37:41;;;;;;;7.32;5.32;;;;;;;7.26;77.39;97561.50;5086119;28;20063;-73
2021/10/27 01:40:12;;;;;;;6.88;5.03;;;;;;;7.27;76.92;97562.31;5082182;28;20059;-73
2021/10/27 01:42:40;;;;;;;6.38;4.57;;;;;;;7.24;76.79;97563.41;5073947;28;20422;-74
2021/10/27 01:45:09;;;;;;;5.93;4.85;;;;;;;7.20;76.67;97562.03;5072005;28;20052;-74
2021/10/27 01:47:40;;;;;;;6.63;5.00;;;;;;;7.15;77.04;97566.78;5072367;28;20048;-74
2021/10/27 01:50:09;;;;;;;5.68;4.50;;;;;;;7.15;77.00;97559.84;5071756;28;20055;-74
2021/10/27 01:52:36;;;;;;;5.85;5.25;;;;;;;7.19;76.90;97568.16;5071958;28;20448;-74
2021/10/27 01:55:07;;;;;;;6.57;5.47;;;;;;;7.19;76.47;97573.34;5072308;28;20067;-74
2021/10/27 01:57:34;;;;;;;5.90;5.20;;;;;;;7.18;76.59;97566.53;5072681;28;20079;-74
2021/10/27 02:00:02;;;;;;;5.82;4.82;;;;;;;7.18;76.55;97569.13;5072836;28;20041;-74
2021/10/27 02:02:30;;;;;;;8.07;5.60;;;;;;;7.18;76.94;97562.16;5072361;28;20498;-73
2021/10/27 02:04:58;;;;;;;6.60;4.72;;;;;;;7.20;77.07;97565.44;5071892;28;20062;-74
2021/10/27 02:07:26;;;;;;;5.97;4.45;;;;;;;7.26;77.27;97566.69;5071940;28;20049;-74
2021/10/27 02:09:53;;;;;;;5.72;4.07;;;;;;;7.36;77.23;97570.06;5071847;28;20048;-73
2021/10/27 02:12:22;;;;;;;5.07;4.15;;;;;;;7.43;76.53;97558.19;5072055;28;20049;-74
2021/10/27 02:14:49;;;;;;;7.10;4.55;;;;;;;7.48;76.17;97570.75;5086973;28;20040;-72
2021/10/27 02:17:17;;;;;;;5.10;4.15;;;;;;;7.47;75.76;97573.47;5095350;28;20049;-73
2021/10/27 02:19:44;;;;;;;6.07;3.92;;;;;;;7.45;75.90;97571.03;5091288;28;20071;-74
2021/10/27 02:22:12;;;;;;;5.50;4.57;;;;;;;7.45;75.67;97575.41;5077370;28;20051;-74
2021/10/27 02:24:40;;;;;;;4.85;4.10;;;;;;;7.45;76.48;97576.22;5076558;28;20052;-74
2021/10/27 02:27:07;;;;;;;8.43;4.97;;;;;;;7.46;75.54;97582.25;5076179;28;20048;-74
2021/10/27 02:29:37;;;;;;;9.10;5.35;;;;;;;7.46;76.25;97582.25;5075494;28;20490;-74
2021/10/27 02:32:05;;;;;;;7.13;4.95;;;;;;;7.46;75.88;97575.28;5075737;28;20056;-73
2021/10/27 02:34:32;;;;;;;6.25;5.25;;;;;;;7.46;75.72;97577.06;5075568;28;20070;-74
2021/10/27 02:37:00;;;;;;;5.90;5.05;;;;;;;7.40;75.79;97579.22;5075791;28;20103;-74
2021/10/27 02:39:28;;;;;;;8.13;5.25;;;;;;;7.37;75.34;97579.50;5075428;28;20106;-74
2021/10/27 02:41:55;;;;;;;8.73;5.07;;;;;;;7.34;75.51;97586.75;5075491;28;20076;-73
2021/10/27 02:44:23;;;;;;;5.32;4.30;;;;;;;7.30;75.46;97581.00;5075561;28;20055;-74
2021/10/27 02:46:52;;;;;;;8.82;4.80;;;;;;;7.33;76.25;97578.13;5075310;28;20063;-74
2021/10/27 02:49:19;;;;;;;8.13;4.28;;;;;;;7.35;75.55;97578.81;5075227;28;20045;-74
2021/10/27 02:51:47;;;;;;;6.10;4.38;;;;;;;7.35;75.85;97591.00;5075415;28;20418;-74
2021/10/27 02:54:14;;;;;;;6.15;4.50;;;;;;;7.38;75.58;97586.31;5075261;28;20060;-73
2021/10/27 02:56:44;;;;;;;5.47;4.15;;;;;;;7.35;75.24;97588.41;5075176;28;20067;-74
2021/10/27 02:59:12;;;;;;;5.78;4.20;;;;;;;7.28;75.29;97595.91;5074794;28;20057;-74
2021/10/27 03:01:39;;;;;;;5.25;4.15;;;;;;;7.23;75.40;97592.88;5075318;28;20421;-74
2021/10/27 03:04:10;;;;;;;6.00;4.97;;;;;;;7.17;74.98;97583.03;5075109;28;20052;-73
2021/10/27 03:06:39;;;;;;;7.13;4.63;;;;;;;7.10;75.35;97587.16;5074984;28;20060;-73
2021/10/27 03:09:07;;;;;;;4.30;3.90;;;;;;;7.07;75.85;97595.22;5074805;28;20071;-73
2021/10/27 03:11:34;;;;;;;8.57;4.50;;;;;;;7.07;75.57;97593.44;5075348;28;20067;-74
2021/10/27 03:14:02;;;;;;;6.95;4.53;;;;;;;7.03;75.37;97588.66;5075131;28;20052;-78
2021/10/27 03:16:29;;;;;;;6.07;4.53;;;;;;;6.98;75.18;97594.25;5075150;28;20040;-77
2021/10/27 03:18:57;;;;;;;4.75;4.15;;;;;;;6.92;75.63;97594.78;5074987;28;20131;-77
2021/10/27 03:21:26;;;;;;;6.82;4.28;;;;;;;6.85;75.58;97599.69;5075071;28;20052;-78
2021/10/27 03:23:53;;;;;;;5.60;4.55;;;;;;;6.80;75.88;97597.47;5075324;28;20056;-78
2021/10/27 03:26:21;;;;;;;7.55;5.20;;;;;;;6.80;75.82;97596.69;5075201;28;20131;-75
2021/10/27 03:28:48;;;;;;;10.18;5.05;;;;;;;6.75;75.90;97593.63;5073619;28;20266;-76
2021/10/27 03:31:16;;;;;;;4.53;4.13;;;;;;;6.71;76.03;97600.03;5075025;28;20437;-75
2021/10/27 03:33:43;;;;;;;7.10;5.55;;;;;;;6.69;76.04;97596.75;5074680;28;20056;-75
2021/10/27 03:36:11;;;;;;;8.95;4.20;;;;;;;6.72;76.25;97599.91;5071749;28;20442;-74
2021/10/27 03:38:40;;;;;;;5.90;3.85;;;;;;;6.72;75.93;97605.09;5070732;28;20508;-73
2021/10/27 03:41:08;;;;;;;7.10;4.90;;;;;;;6.69;76.33;97602.78;5073834;28;20052;-73
2021/10/27 03:43:35;;;;;;;4.97;4.18;;;;;;;6.70;76.72;97606.19;5073624;28;20052;-73
2021/10/27 03:46:03;;;;;;;5.45;4.22;;;;;;;6.72;76.92;97594.72;5073977;28;20056;-73
2021/10/27 03:48:31;;;;;;;6.40;4.53;;;;;;;6.74;76.43;97598.00;5073306;28;20560;-73
2021/10/27 03:50:59;;;;;;;5.65;3.90;;;;;;;6.77;75.86;97602.09;5073781;28;20049;-73
2021/10/27 03:53:27;;;;;;;4.70;3.88;;;;;;;6.83;76.25;97601.59;5073480;28;20063;-73
2021/10/27 03:55:55;;;;;;;6.68;4.65;;;;;;;6.84;75.69;97594.63;5072730;28;20047;-74
2021/10/27 03:58:23;;;;;;;8.50;4.88;;;;;;;6.82;75.52;97599.94;5073935;28;20056;-73
2021/10/27 04:00:50;;;;;;;5.05;4.20;;;;;;;6.86;76.59;97597.91;5073387;28;20048;-74
2021/10/27 04:03:21;;;;;;;8.55;4.63;;;;;;;6.92;75.68;97595.59;5073918;28;20094;-73
2021/10/27 04:05:48;;;;;;;6.85;4.85;;;;;;;6.89;75.47;97608.84;5073970;28;20041;-73
2021/10/27 04:08:16;;;;;;;6.43;4.53;;;;;;;6.84;75.66;97607.59;5073983;28;20045;-72
2021/10/27 04:10:45;;;;;;;6.10;4.47;;;;;;;6.80;75.26;97612.22;5075251;28;20056;-73
2021/10/27 04:13:14;;;;;;;5.00;4.15;;;;;;;6.81;76.29;97613.84;5074774;28;20052;-74
2021/10/27 04:15:42;;;;;;;6.30;4.82;;;;;;;6.86;76.05;97616.88;5074415;28;20046;-73
2021/10/27 04:18:10;;;;;;;4.55;4.05;;;;;;;6.88;75.60;97620.16;5073302;28;20052;-74
2021/10/27 04:20:38;;;;;;;8.30;5.60;;;;;;;6.87;75.33;97615.94;5073187;28;20063;-73
2021/10/27 04:23:08;;;;;;;6.78;5.07;;;;;;;6.84;74.88;97616.19;5073551;28;20060;-73
2021/10/27 04:25:36;;;;;;;6.43;4.75;;;;;;;6.80;74.93;97622.59;5073088;28;20056;-73
2021/10/27 04:28:05;;;;;;;5.93;5.03;;;;;;;6.78;75.46;97614.94;5073652;28;20064;-73
2021/10/27 04:30:34;;;;;;;6.88;5.13;;;;;;;6.77;75.54;97617.66;5072847;28;20494;-73
2021/10/27 04:33:03;;;;;;;7.80;4.82;;;;;;;6.75;75.12;97614.38;5072736;28;20053;-73
2021/10/27 04:35:30;;;;;;;6.68;4.85;;;;;;;6.72;75.09;97615.47;5073191;28;20049;-73
2021/10/27 04:37:58;;;;;;;5.32;4.15;;;;;;;6.72;75.07;97612.06;5072951;28;20060;-73
2021/10/27 04:40:25;;;;;;;9.15;4.20;;;;;;;6.73;75.62;97622.28;5072507;28;20498;-72
2021/10/27 04:42:53;;;;;;;7.30;5.22;;;;;;;6.76;74.95;97616.03;5073170;28;20071;-73
2021/10/27 04:47:51;;;;;;;7.20;5.47;;;;;;;6.83;74.38;97609.38;4994458;28;20061;-79
2021/10/27 04:50:19;;;;;;;8.50;5.85;;;;;;;6.80;74.34;97607.03;4995127;28;20050;-78
2021/10/27 04:52:46;;;;;;;5.80;4.95;;;;;;;6.80;75.09;97609.63;4995560;28;20054;-82
2021/10/27 04:55:14;;;;;;;8.48;4.78;;;;;;;6.82;75.10;97605.13;4997528;28;20054;-81
2021/10/27 04:57:41;;;;;;;10.70;5.75;;;;;;;6.84;74.62;97610.19;4998168;28;20061;-80
2021/10/27 05:00:10;;;;;;;5.07;4.10;;;;;;;6.80;74.19;97617.41;4997548;28;20059;-79
2021/10/27 05:02:37;;;;;;;6.13;4.13;;;;;;;6.77;74.21;97618.47;4996778;28;20058;-81
2021/10/27 05:05:07;;;;;;;7.20;4.90;;;;;;;6.74;74.84;97617.94;4997444;28;20522;-78
2021/10/27 05:07:36;;;;;;;6.20;5.03;;;;;;;6.71;74.17;97615.59;4998713;28;20057;-80
2021/10/27 05:10:04;;;;;;;7.05;5.07;;;;;;;6.65;74.52;97608.34;4998938;28;20050;-79
2021/10/27 05:12:31;;;;;;;6.20;5.30;;;;;;;6.64;74.90;97606.72;4998254;28;20054;-81
2021/10/27 05:14:59;;;;;;;8.75;5.20;;;;;;;6.63;74.45;97605.09;4996553;28;20058;-84
2021/10/27 05:17:26;;;;;;;7.28;4.70;;;;;;;6.59;74.54;97604.53;4996474;28;20428;-79
2021/10/27 05:19:54;;;;;;;10.15;5.47;;;;;;;6.58;74.72;97614.06;4996699;28;20460;-79
2021/10/27 05:22:23;;;;;;;6.07;4.32;;;;;;;6.58;75.29;97601.13;4996699;28;20046;-79
2021/10/27 05:24:51;;;;;;;9.65;4.57;;;;;;;6.62;75.06;97609.44;4997436;28;20574;-81
2021/10/27 05:27:19;;;;;;;8.32;5.32;;;;;;;6.60;75.16;97607.00;4997523;28;20042;-79
2021/10/27 05:29:46;;;;;;;6.32;4.78;;;;;;;6.62;76.31;97608.63;4996432;28;20053;-78
2021/10/27 05:32:14;;;;;;;8.63;5.38;;;;;;;6.69;76.92;97614.91;4978014;28;20123;-78
2021/10/27 05:34:43;;;;;;;5.60;4.28;;;;;;;6.79;76.72;97606.19;4977573;28;20051;-80
2021/10/27 05:37:10;;;;;;;10.43;5.10;;;;;;;6.84;75.85;97608.41;4976825;28;20047;-78
2021/10/27 05:39:39;;;;;;;7.75;5.40;;;;;;;6.83;75.33;97603.38;4973623;28;20050;-78
2021/10/27 05:42:10;;;;;;;10.05;5.90;;;;;;;6.79;75.53;97608.78;4974321;28;20050;-75
2021/10/27 05:44:38;;;;;;;7.68;5.35;;;;;;;6.76;75.36;97603.88;4974519;28;20059;-76
2021/10/27 05:47:05;;;;;;;7.65;5.13;;;;;;;6.76;75.81;97605.66;4974738;28;20054;-77
2021/10/27 05:49:36;;;;;;;7.82;4.78;;;;;;;6.76;75.33;97616.03;4974168;28;20051;-76
2021/10/27 05:54:59;;;;;;;9.05;5.43;;;;;;;6.78;75.99;97606.34;4974094;28;20492;-77
2021/10/27 05:55:05;;;;;;;7.70;5.32;;;;;;;6.79;75.35;97610.56;4993829;28;20053;-75
2021/10/27 05:57:34;;;;;;;6.53;5.35;;;;;;;6.79;75.29;97602.81;4993529;28;20046;-75
2021/10/27 06:00:02;;;;;;;6.38;5.35;;;;;;;6.81;75.88;97611.25;4994259;28;20663;-77
2021/10/27 06:02:29;;;;;;;9.88;6.35;;;;;;;6.82;75.12;97615.50;5002808;28;20046;-80
2021/10/27 06:04:56;;;;;;;8.80;6.45;;;;;;;6.81;75.40;97612.06;5001298;28;20061;-77
2021/10/27 06:07:24;;;;;;;10.35;6.25;;;;;;;6.78;75.18;97616.72;4994796;28;20053;-75
2021/10/27 06:09:54;;;;;;;10.82;6.22;;;;;;;6.72;75.04;97620.66;4994184;28;20046;-75
2021/10/27 06:12:23;;;;;;;18.25;6.85;;;;;;;6.69;75.33;97626.13;4996363;28;20046;-79
2021/10/27 06:14:50;;;;;;;11.13;7.55;;;;;;;6.68;75.66;97628.84;4994729;28;20046;-77
2021/10/27 06:17:18;;;;;;;13.48;7.95;;;;;;;6.67;75.58;97622.00;4993376;28;20053;-76
2021/10/27 06:19:47;;;;;;;13.57;7.00;;;;;;;6.70;76.02;97629.53;5000935;28;20061;-80
2021/10/27 06:22:14;;;;;;;15.77;10.25;;;;;;;6.74;75.49;97626.53;5005151;28;20059;-78
2021/10/27 06:24:42;;;;;;;14.32;9.30;;;;;;;6.79;75.77;97631.31;5002323;28;20054;-80
2021/10/27 06:27:11;;;;;;;24.85;10.43;;;;;;;6.84;75.09;97636.09;4995138;28;20105;-78
2021/10/27 06:29:43;;;;;;;14.70;8.52;;;;;;;6.88;74.90;97635.72;4994527;28;20058;-76
2021/10/27 06:32:18;;;;;;;17.48;8.77;;;;;;;6.93;74.85;97636.16;4994803;28;20061;-77
2021/10/27 06:34:49;;;;;;;13.80;8.15;;;;;;;6.94;74.62;97635.19;5001588;28;20106;-77
2021/10/27 06:37:42;;;;;;;14.15;7.30;;;;;;;6.93;74.63;97636.16;5004165;28;20043;-78
2021/10/27 06:46:12;;;;;;;17.55;10.05;;;;;;;6.94;75.10;97642.97;4994909;28;20122;-75
2021/10/27 06:48:40;;;;;;;12.73;8.88;;;;;;;7.01;75.17;97651.84;4994097;28;20116;-75
2021/10/27 06:51:10;;;;;;;14.45;8.38;;;;;;;7.09;75.38;97645.19;4994185;28;20050;-76
2021/10/27 06:53:38;;;;;;;12.40;8.77;;;;;;;7.16;74.75;97648.88;4993957;28;20047;-77
2021/10/27 06:56:10;;;;;;;12.80;7.60;;;;;;;7.25;75.18;97647.25;4994007;28;20497;-74
2021/10/27 06:58:44;;;;;;;16.58;6.90;;;;;;;7.32;74.92;97649.16;4994529;28;20054;-76
2021/10/27 07:01:18;;;;;;;11.82;7.10;;;;;;;7.34;74.63;97656.81;4993789;28;20053;-76
2021/10/27 07:06:57;;;;;;;10.05;6.68;;;;;;;7.42;74.89;97665.56;4942182;28;20055;-76
2021/10/27 07:15:01;;;;;;;9.93;6.85;;;;;;;7.69;74.65;97661.47;4978567;28;20055;-78
2021/10/27 07:17:31;;;;;;;9.20;6.78;;;;;;;7.80;75.58;97668.31;4978295;28;20051;-76
2021/10/27 07:19:59;;;;;;;10.35;7.13;;;;;;;7.90;75.24;97669.13;4977941;28;20058;-76
2021/10/27 07:22:27;;;;;;;8.20;6.38;;;;;;;8.04;74.84;97670.47;4977602;28;20054;-77
2021/10/27 07:24:54;;;;;;;9.10;6.63;;;;;;;8.19;74.92;97669.06;4977970;28;20543;-76
2021/10/27 07:27:21;;;;;;;11.70;7.22;;;;;;;8.32;74.19;97673.97;4977321;28;20513;-76
2021/10/27 07:29:50;;;;;;;13.10;6.65;;;;;;;8.45;74.67;97673.69;4977032;28;20066;-77
2021/10/27 07:32:18;;;;;;;11.20;7.32;;;;;;;8.60;74.54;97687.88;4977350;28;20058;-79
2021/10/27 07:34:51;;;;;;;11.30;7.00;;;;;;;8.72;73.59;97685.91;4978243;28;20058;-81
2021/10/27 07:42:52;;;;;;;9.10;6.00;;;;;;;9.15;73.43;97687.06;4975582;28;20051;-80
2021/10/27 07:45:22;;;;;;;9.55;6.82;;;;;;;9.30;72.85;97684.78;4976701;28;20058;-79
2021/10/27 07:47:50;;;;;;;11.68;8.02;;;;;;;9.40;72.51;97689.94;4975524;28;20497;-77
2021/10/27 07:50:19;;;;;;;10.48;8.10;;;;;;;9.51;72.29;97686.28;4975283;28;20057;-76
2021/10/27 07:52:47;;;;;;;13.57;10.00;;;;;;;9.62;71.88;97683.47;4975193;28;20051;-76
2021/10/27 07:55:14;;;;;;;14.50;9.13;;;;;;;9.72;71.72;97680.78;4975170;28;20058;-76
2021/10/27 07:57:42;;;;;;;11.48;8.70;;;;;;;9.87;71.60;97682.72;4975499;28;20402;-76
2021/10/27 08:00:11;;;;;;;13.13;8.98;;;;;;;10.06;71.01;97683.53;4975730;28;20043;-76
2021/10/27 08:02:39;;;;;;;11.63;8.80;;;;;;;10.25;71.16;97685.91;4975062;28;20406;-76
2021/10/27 08:05:07;;;;;;;12.82;8.43;;;;;;;10.43;70.30;97693.75;4975238;28;20077;-77
2021/10/27 08:07:44;;;;;;;11.30;8.48;;;;;;;10.61;69.82;97685.03;4974926;28;20051;-78
2021/10/27 08:10:13;;;;;;;14.68;9.13;;;;;;;10.79;69.58;97684.97;4974762;28;20051;-77
2021/10/27 08:12:41;;;;;;;18.50;8.27;;;;;;;10.95;69.31;97689.44;4977516;28;20066;-78
2021/10/27 08:15:09;;;;;;;9.32;7.20;;;;;;;11.11;70.03;97687.69;4979048;28;20047;-78
2021/10/27 08:17:38;;;;;;;12.27;7.75;;;;;;;11.28;69.92;97690.34;4981932;28;20062;-83
2021/10/27 08:20:07;;;;;;;11.00;7.38;;;;;;;11.42;68.85;97689.75;4980177;28;20051;-78
2021/10/27 08:22:36;;;;;;;14.45;8.70;;;;;;;11.56;67.88;97685.66;4976619;28;20058;-77
2021/10/27 08:25:14;;;;;;;17.38;8.82;;;;;;;11.73;67.83;97692.56;4977963;28;20065;-78
2021/10/27 08:27:41;;;;;;;12.57;8.18;;;;;;;11.95;67.86;97685.09;4978186;28;20054;-77
2021/10/27 08:30:11;;;;;;;12.30;8.52;;;;;;;12.13;67.19;97683.13;4976349;28;20051;-77
2021/10/27 08:32:47;;;;;;;10.65;8.23;;;;;;;12.36;66.75;97683.25;4976945;28;20062;-79
2021/10/27 08:35:16;;;;;;;9.07;7.13;;;;;;;12.59;66.69;97687.78;4980332;28;20047;-87
2021/10/27 08:37:45;;;;;;;14.25;8.48;;;;;;;12.78;65.52;97690.00;4980601;28;20043;-77
2021/10/27 08:40:16;;;;;;;11.00;8.82;;;;;;;12.95;65.96;97690.78;4984404;28;20421;-79
2021/10/27 08:42:44;;;;;;;23.98;10.20;;;;;;;13.13;64.53;97694.97;4981547;28;20062;-77
2021/10/27 08:45:12;;;;;;;15.13;10.48;;;;;;;13.30;63.91;97690.50;4980319;28;20066;-79
2021/10/27 08:47:42;;;;;;;16.20;9.77;;;;;;;13.49;63.37;97684.81;4980115;28;20047;-78
2021/10/27 08:50:13;;;;;;;12.00;10.10;;;;;;;13.70;62.49;97691.22;4979464;28;20059;-78
2021/10/27 08:52:42;;;;;;;17.58;11.18;;;;;;;13.86;61.85;97680.59;4984985;28;20073;-78
2021/10/27 08:55:13;;;;;;;14.13;9.10;;;;;;;14.02;61.27;97682.31;4999192;28;20153;-78
2021/10/27 08:57:44;;;;;;;15.60;10.20;;;;;;;14.17;60.55;97683.16;4982029;28;20055;-79
2021/10/27 09:00:16;;;;;;;19.77;11.05;;;;;;;14.32;60.60;97679.72;4979503;28;20054;-77
2021/10/27 09:02:56;;;;;;;20.23;11.77;;;;;;;14.49;60.09;97672.50;4981000;28;20074;-80
2021/10/27 09:37:15;;;;;;;9.52;5.38;;;;;;;16.92;54.25;97661.34;4972071;28;20054;-80
2021/10/27 10:05:11;;;;;;;1.42;0.85;;;;;;;18.19;49.00;97646.59;4979789;28;20058;-79
2021/10/27 10:07:40;;;;;;;2.40;1.48;;;;;;;18.26;48.38;97637.66;4983176;28;20133;-81
2021/10/27 10:10:10;;;;;;;3.88;1.48;;;;;;;18.31;47.61;97643.13;4984104;28;20058;-80
2021/10/27 10:12:39;;;;;;;2.75;2.00;;;;;;;18.35;49.75;97640.09;4984101;28;20053;-78
2021/10/27 10:15:08;;;;;;;4.47;1.92;;;;;;;18.43;49.95;97635.41;4984906;28;20058;-80
2021/10/27 10:17:38;;;;;;;2.40;1.45;;;;;;;18.56;49.92;97633.72;4982797;28;20058;-79
2021/10/27 10:20:10;;;;;;;6.25;1.90;;;;;;;18.68;48.91;97634.72;4982792;28;20441;-78
2021/10/27 10:23:16;;;;;;;3.25;1.67;;;;;;;18.82;48.05;97631.03;4984772;28;20054;-81
2021/10/27 10:25:50;;;;;;;1.77;1.30;;;;;;;18.94;47.70;97624.06;4982254;28;20070;-79
2021/10/27 10:28:20;;;;;;;3.72;1.75;;;;;;;19.11;47.43;97618.28;4981100;28;20054;-80
2021/10/27 10:30:54;;;;;;;3.53;2.45;;;;;;;19.25;46.21;97619.06;4989059;28;20047;-81
2021/10/27 10:33:37;;;;;;;1.80;1.40;;;;;;;19.33;45.27;97616.16;4988591;28;20062;-82
2021/10/27 10:36:09;;;;;;;1.67;1.45;;;;;;;19.42;44.53;97612.25;4982572;28;20054;-84
2021/10/27 10:39:01;;;;;;;1.98;1.27;;;;;;;19.51;46.37;97610.16;4982690;28;20057;-80
2021/10/27 10:41:47;;;;;;;3.35;1.40;;;;;;;19.63;45.73;97610.25;4984962;28;20142;-80
2021/10/27 10:59:48;;;;;;;4.32;2.40;;;;;;;19.60;43.74;97585.03;5056353;28;20049;-71
2021/10/27 11:26:16;;;;;;;3.65;1.65;;;;;;;19.67;42.68;97561.97;5053373;28;20525;-71
2021/10/27 11:39:45;;;;;;;6.95;1.60;;;;;;;19.57;42.70;97548.44;5069043;28;20056;-70
2021/10/27 11:42:35;;;;;;;3.70;1.70;;;;;;;19.54;41.86;97543.53;5069993;28;20056;-70
2021/10/27 11:45:14;;;;;;;4.18;1.70;;;;;;;19.45;42.47;97544.84;5060014;28;20056;-71
2021/10/27 11:47:44;;;;;;;4.80;1.23;;;;;;;19.33;41.92;97539.44;5055519;28;20076;-71
2021/10/27 11:50:17;;;;;;;2.47;1.90;;;;;;;19.25;42.52;97531.75;5054239;28;20052;-71
2021/10/27 11:52:45;;;;;;;7.75;2.10;;;;;;;19.13;42.99;97523.69;5054329;28;20057;-71
2021/10/27 11:55:15;;;;;;;3.05;1.63;;;;;;;19.07;43.20;97524.56;5054317;28;20048;-71
2021/10/27 11:57:46;;;;;;;3.20;1.20;;;;;;;19.09;43.41;97518.03;5054171;28;20060;-71
2021/10/27 12:00:29;;;;;;;4.60;1.85;;;;;;;19.18;43.07;97518.59;5054003;28;20045;-71
2021/10/27 12:03:01;;;;;;;5.50;2.00;;;;;;;19.18;43.34;97509.84;5053968;28;20053;-71
2021/10/27 12:05:35;;;;;;;5.57;1.90;;;;;;;19.17;43.67;97505.56;5054232;28;20396;-71
2021/10/27 12:08:16;;;;;;;3.53;1.52;;;;;;;19.16;42.48;97507.41;5053959;28;20057;-71
2021/10/27 12:11:00;;;;;;;4.05;1.15;;;;;;;19.22;43.01;97498.63;5053867;28;20045;-71
2021/10/27 12:16:28;;;;;;;4.55;2.08;;;;;;;19.31;43.18;97492.03;5052907;28;20052;-70
2021/10/27 12:18:58;;;;;;;3.30;1.40;;;;;;;19.35;43.69;97487.13;5053513;28;20045;-71
2021/10/27 12:21:26;;;;;;;3.05;2.20;;;;;;;19.41;42.81;97480.97;5054423;28;20115;-71
2021/10/27 12:23:55;;;;;;;3.20;1.90;;;;;;;19.45;42.83;97481.34;5054860;28;20049;-71
2021/10/27 12:26:24;;;;;;;4.75;2.13;;;;;;;19.47;43.09;97479.28;5054996;28;20060;-71
2021/10/27 12:29:09;;;;;;;4.60;2.25;;;;;;;19.49;43.46;97480.69;5053353;28;20045;-72
2021/10/27 12:31:37;;;;;;;2.63;1.65;;;;;;;19.51;43.94;97473.34;5053602;28;20053;-71
2021/10/27 12:34:20;;;;;;;7.35;2.70;;;;;;;19.56;43.73;97472.69;5053144;28;20053;-71
2021/10/27 12:36:47;;;;;;;;;;;;;;;19.59;44.38;97469.63;5053619;28;20060;-71
2021/10/27 12:39:19;;;;;;;6.13;3.13;;;;;;;19.46;43.65;97469.72;5052889;28;19944;-71
2021/10/27 12:42:00;;;;;;;4.53;2.83;;;;;;;19.22;44.12;97461.59;5053279;28;20052;-71
2021/10/27 12:44:29;;;;;;;3.85;2.75;;;;;;;19.08;44.14;97465.34;5053373;28;20419;-71
2021/10/27 12:47:11;;;;;;;4.47;2.70;;;;;;;18.92;44.21;97467.50;5051971;28;20414;-71
2021/10/27 12:49:40;;;;;;;4.03;2.30;;;;;;;18.87;44.72;97459.41;5052353;28;20514;-71
2021/10/27 12:52:23;;;;;;;3.70;2.63;;;;;;;18.86;44.87;97463.06;5053118;28;20056;-72
2021/10/27 12:55:06;;;;;;;7.28;2.90;;;;;;;18.87;44.51;97453.28;5052940;28;20045;-72
2021/10/27 12:57:47;;;;;;;5.72;2.70;;;;;;;18.86;44.75;97457.75;5052352;28;20111;-71
2021/10/27 13:00:20;;;;;;;4.03;2.35;;;;;;;18.79;44.93;97451.72;5052050;28;20080;-71
2021/10/27 13:03:03;;;;;;;3.60;2.72;;;;;;;18.77;45.56;97453.72;5052620;28;20076;-71
2021/10/27 13:05:35;;;;;;;5.88;2.80;;;;;;;18.80;45.45;97445.38;5053561;28;20076;-71
2021/10/27 13:08:18;;;;;;;2.42;2.10;;;;;;;18.85;46.04;97442.94;5059590;28;20048;-71
2021/10/27 13:10:50;;;;;;;4.75;2.47;;;;;;;18.92;45.60;97445.53;5059815;28;20486;-71
2021/10/27 13:13:29;;;;;;;7.00;3.15;;;;;;;18.96;45.12;97435.31;5061303;28;20407;-71
2021/10/27 13:16:14;;;;;;;5.97;2.60;;;;;;;18.99;45.02;97440.19;5054035;28;20545;-71
2021/10/27 13:18:57;;;;;;;5.93;2.42;;;;;;;19.02;45.24;97440.59;5053385;28;20128;-71
2021/10/27 13:21:41;;;;;;;3.45;2.97;;;;;;;19.01;44.61;97438.16;5053793;28;20052;-71
2021/10/27 13:29:42;;;;;;;7.20;2.15;;;;;;;18.91;45.37;97434.16;5053973;28;20099;-71
2021/10/27 13:32:15;;;;;;;2.70;2.20;;;;;;;18.88;45.17;97439.06;5053147;28;20052;-72
2021/10/27 13:34:43;;;;;;;4.38;3.10;;;;;;;18.79;44.88;97435.06;5052546;28;20522;-72
2021/10/27 13:37:12;;;;;;;4.80;2.38;;;;;;;18.72;45.59;97424.50;5052173;28;20048;-72
2021/10/27 13:39:40;;;;;;;4.97;3.10;;;;;;;18.69;45.48;97433.66;5051879;28;20051;-72
2021/10/27 13:42:10;;;;;;;4.15;2.90;;;;;;;18.63;45.70;97437.16;5052337;28;20422;-73
2021/10/27 13:44:45;;;;;;;4.13;2.45;;;;;;;18.61;46.24;97433.09;5051378;28;20054;-72
2021/10/27 13:47:24;;;;;;;9.93;3.63;;;;;;;18.58;46.07;97436.97;5054860;28;20056;-72
2021/10/27 13:57:42;;;;;;;5.85;3.78;;;;;;;18.49;46.31;97436.41;5057393;28;20407;-72
2021/10/27 13:58:33;;;;;;;6.20;3.78;;;;;;;18.25;46.82;97434.50;5052112;28;20060;-72
2021/10/27 14:06:43;;;;;;;4.57;2.95;;;;;;;18.03;47.57;97429.50;5051859;28;20057;-71
2021/10/27 14:09:17;;;;;;;6.18;3.42;;;;;;;17.96;47.00;97430.56;5051689;28;20132;-71
2021/10/27 14:11:56;;;;;;;5.30;2.78;;;;;;;17.90;47.44;97427.72;5051848;28;20053;-72
2021/10/27 14:14:34;;;;;;;7.05;3.25;;;;;;;17.87;46.78;97422.06;5055995;28;20068;-72
2021/10/27 14:20:19;;;;;;;8.90;2.70;;;;;;;17.67;46.93;97425.53;5055606;28;20045;-72
2021/10/27 14:23:08;;;;;;;4.88;3.20;;;;;;;17.55;47.13;97418.44;5055621;28;20526;-72
2021/10/27 14:39:48;;;;;;;3.13;2.42;;;;;;;17.12;48.13;97408.34;5055085;28;20048;-72